ASN logo
Last updated: 8 December 2021
Statuts:Préliminaire
Date:mardi 12 octobre 2010
Heure:ca 19:50
Type/Sous-type:Silhouette image of generic C130 model; specific model in this crash may look slightly different
Lockheed L-100-20 Hercules
Operated by:Transafrik
On behalf of:National Airlines (National Air Cargo)
Immatriculation: 5X-TUC
Numéro de série: 4362
Année de Fabrication: 1969
Moteurs: 4 Allison 501-D22A
Equipage:victimes: 8 / à bord: 8
Passagers:victimes: 0 / à bord: 0
Total:victimes: 8 / à bord: 8
Dégats de l'appareil: Détruit
Conséquences: Written off (damaged beyond repair)
Lieu de l'accident:30 km (18.8 milles) E of Kabul Airport (KBL) (   Afghanistan)
Phase de vol: En vol (ENR)
Nature:Cargo
Aéroport de départ:Bagram Air Base (OAI/OAIX), Afghanistan
Aéroport de destination:Kabul Airport (KBL/OAKB), Afghanistan
Numéro de vol: 662
Détails:
A Lockheed L-100 Hercules cargo plane, registration 5X-TUC, was damaged beyond repair in an accident near Kabul Airport (KBL), Afghanistan. All eight crew members were killed.
The flight was en route from Bagram Air Base (BPM) to Kabul Airport (KBL). According to Afghan news media, the plane had delivered logistic supplies to NATO-led forces from Pakistan.
Weather reported about the time of the accident (19:50 LT / 15:20 UTC) was:
OAKB 121550Z VRB01KT 5000 HZ NSC 17/07 Q1020 TEMPO 4000 RMK WHT GRN
OAKB 121450Z 08004KT 5000 HZ NSC 18/06 Q1019 TEMPO 4000 RMK WHT GRN

Sources:
» Cargo plane crashes near Kabul (AlJazeera, 12-10-2010)
» Eight crew killed in plane crash near Kabul: official (AFP, 12-10-2010)
» 9 believed dead in Kabul plane crash (PAN, 12-10-2010)


Photos

Add your photo of this accident or aircraft

Plan
Ce plan montre l'aéroport de départ ainsi que la supposée destination du vol. La ligne fixe reliant les deux aéroports n'est pas le plan de vol exact.
La distance entre Bagram Air Base et Kabul Airport est de 42 km (26 miles).
Accident location: Global; accuracy within tens or hundreds of kilometers.

Les informations ci-dessus ne représentent pas l'opinion de la 'Flight Safety Foundation' ou de 'Aviation Safety Network' sur les causes de l'accident. Ces informations prélimimaires sont basées sur les faits tel qu'ils sont connus à ce jour.
languages: languages

Share